SWA8 KCRP-KHOU
Flight info
| Callsign | SWA8 |
|---|---|
| Flight time | 0h 33m |
| Altitude | 21000 |
| Route | CRP BELLR6 |
| Aircraft | B737/M-SDE2E3GIJ4RWZ/LB1D1 |
Departure
| Time | 2026-04-16 05:43 |
|---|---|
| Airport | Corpus Christi International Airport (KCRP) |
Arrival
| Time | 2026-04-16 06:16 |
|---|---|
| Airport | William P. Hobby Airport (KHOU) |
| Time | Latitude | Longitude | Altitude | Speed | Heading |
|---|---|---|---|---|---|
| 2026-04-16 05:22 | 27.77340 | -97.50275 | 46 ft | 0 kts | 86° |
| 2026-04-16 05:32 | 27.77340 | -97.50290 | 46 ft | 2 kts | 86° |
| 2026-04-16 05:32 | 27.77336 | -97.50306 | 46 ft | 2 kts | 63° |
| 2026-04-16 05:33 | 27.77328 | -97.50320 | 46 ft | 2 kts | 45° |
| 2026-04-16 05:33 | 27.77316 | -97.50331 | 46 ft | 2 kts | 26° |
| 2026-04-16 05:33 | 27.77302 | -97.50337 | 46 ft | 2 kts | 7° |
| 2026-04-16 05:33 | 27.77290 | -97.50337 | 46 ft | 0 kts | 355° |
| 2026-04-16 05:34 | 27.77277 | -97.50335 | 46 ft | 2 kts | 341° |
| 2026-04-16 05:34 | 27.77264 | -97.50326 | 46 ft | 2 kts | 320° |
| 2026-04-16 05:34 | 27.77254 | -97.50314 | 46 ft | 2 kts | 298° |
| 2026-04-16 05:34 | 27.77249 | -97.50298 | 46 ft | 2 kts | 277° |
| 2026-04-16 05:35 | 27.77249 | -97.50289 | 46 ft | 1 kts | 265° |
| 2026-04-16 05:35 | 27.77249 | -97.50285 | 46 ft | 0 kts | 267° |
| 2026-04-16 05:37 | 27.77249 | -97.50288 | 46 ft | 1 kts | 267° |
| 2026-04-16 05:38 | 27.77248 | -97.50306 | 46 ft | 3 kts | 267° |
| 2026-04-16 05:38 | 27.77247 | -97.50333 | 46 ft | 3 kts | 267° |
| 2026-04-16 05:38 | 27.77251 | -97.50375 | 46 ft | 8 kts | 281° |
| 2026-04-16 05:38 | 27.77256 | -97.50466 | 46 ft | 14 kts | 257° |
| 2026-04-16 05:39 | 27.77231 | -97.50546 | 46 ft | 9 kts | 285° |
| 2026-04-16 05:39 | 27.77278 | -97.50611 | 46 ft | 12 kts | 315° |
| 2026-04-16 05:39 | 27.77356 | -97.50697 | 46 ft | 16 kts | 315° |
| 2026-04-16 05:39 | 27.77441 | -97.50790 | 46 ft | 17 kts | 316° |
| 2026-04-16 05:40 | 27.77527 | -97.50884 | 47 ft | 17 kts | 315° |
| 2026-04-16 05:40 | 27.77611 | -97.50974 | 47 ft | 16 kts | 315° |
| 2026-04-16 05:40 | 27.77692 | -97.51063 | 47 ft | 16 kts | 315° |
| 2026-04-16 05:40 | 27.77770 | -97.51150 | 47 ft | 15 kts | 315° |
| 2026-04-16 05:41 | 27.77851 | -97.51239 | 47 ft | 18 kts | 316° |
| 2026-04-16 05:41 | 27.77945 | -97.51341 | 47 ft | 18 kts | 315° |
| 2026-04-16 05:41 | 27.77978 | -97.51442 | 47 ft | 13 kts | 232° |
| 2026-04-16 05:41 | 27.77912 | -97.51517 | 47 ft | 13 kts | 219° |
| 2026-04-16 05:42 | 27.77837 | -97.51489 | 47 ft | 17 kts | 135° |
| 2026-04-16 05:42 | 27.77650 | -97.51283 | 47 ft | 69 kts | 136° |
| 2026-04-16 05:42 | 27.77134 | -97.50722 | 47 ft | 133 kts | 135° |
| 2026-04-16 05:42 | 27.76418 | -97.49934 | 514 ft | 143 kts | 136° |
| 2026-04-16 05:43 | 27.75757 | -97.49196 | 1330 ft | 136 kts | 137° |
| 2026-04-16 05:43 | 27.75080 | -97.48403 | 1940 ft | 147 kts | 130° |
| 2026-04-16 05:43 | 27.74739 | -97.47268 | 2459 ft | 173 kts | 92° |
| 2026-04-16 05:43 | 27.75238 | -97.45947 | 2990 ft | 204 kts | 52° |
| 2026-04-16 05:44 | 27.76476 | -97.44958 | 3407 ft | 236 kts | 33° |
| 2026-04-16 05:44 | 27.78013 | -97.43975 | 3791 ft | 265 kts | 32° |
| 2026-04-16 05:44 | 27.79556 | -97.42995 | 5015 ft | 256 kts | 32° |
| 2026-04-16 05:44 | 27.81149 | -97.41943 | 5631 ft | 274 kts | 33° |
| 2026-04-16 05:45 | 27.82817 | -97.40801 | 6343 ft | 287 kts | 33° |
| 2026-04-16 05:45 | 27.84500 | -97.39620 | 7226 ft | 291 kts | 33° |
| 2026-04-16 05:45 | 27.86213 | -97.38386 | 8133 ft | 295 kts | 33° |
| 2026-04-16 05:45 | 27.87934 | -97.37122 | 8930 ft | 301 kts | 32° |
| 2026-04-16 05:46 | 27.89700 | -97.35821 | 9790 ft | 304 kts | 32° |
| 2026-04-16 05:46 | 27.91510 | -97.34492 | 10474 ft | 314 kts | 32° |
| 2026-04-16 05:46 | 27.93398 | -97.33109 | 10951 ft | 332 kts | 32° |
| 2026-04-16 05:46 | 27.95380 | -97.31660 | 11437 ft | 348 kts | 32° |
| 2026-04-16 05:47 | 27.97458 | -97.30140 | 11897 ft | 365 kts | 32° |
| 2026-04-16 05:47 | 27.99644 | -97.28540 | 12363 ft | 381 kts | 32° |
| 2026-04-16 05:47 | 28.01879 | -97.26901 | 13024 ft | 388 kts | 32° |
| 2026-04-16 05:47 | 28.04147 | -97.25235 | 13829 ft | 391 kts | 32° |
| 2026-04-16 05:48 | 28.06457 | -97.23537 | 14550 ft | 398 kts | 31° |
| 2026-04-16 05:48 | 28.08782 | -97.21829 | 15304 ft | 403 kts | 31° |
| 2026-04-16 05:48 | 28.11163 | -97.20080 | 16045 ft | 409 kts | 31° |
| 2026-04-16 05:48 | 28.13559 | -97.18320 | 16771 ft | 414 kts | 31° |
| 2026-04-16 05:49 | 28.16011 | -97.16518 | 17503 ft | 419 kts | 31° |
| 2026-04-16 05:49 | 28.18488 | -97.14697 | 18198 ft | 425 kts | 31° |
| 2026-04-16 05:49 | 28.20958 | -97.12881 | 18914 ft | 429 kts | 31° |
| 2026-04-16 05:49 | 28.23468 | -97.11034 | 19563 ft | 434 kts | 31° |
| 2026-04-16 05:50 | 28.26036 | -97.09145 | 20244 ft | 439 kts | 31° |
| 2026-04-16 05:50 | 28.28608 | -97.07253 | 20836 ft | 444 kts | 31° |
| 2026-04-16 05:50 | 28.31204 | -97.05342 | 20996 ft | 445 kts | 31° |
| 2026-04-16 05:50 | 28.33787 | -97.03436 | 21007 ft | 441 kts | 31° |
| 2026-04-16 05:51 | 28.36355 | -97.01540 | 21012 ft | 441 kts | 31° |
| 2026-04-16 05:51 | 28.38939 | -96.99631 | 21007 ft | 441 kts | 31° |
| 2026-04-16 05:51 | 28.41527 | -96.97718 | 21004 ft | 441 kts | 31° |
| 2026-04-16 05:51 | 28.44144 | -96.95785 | 21011 ft | 458 kts | 31° |
| 2026-04-16 05:52 | 28.46866 | -96.93747 | 21019 ft | 474 kts | 33° |
| 2026-04-16 05:52 | 28.49561 | -96.91538 | 21014 ft | 485 kts | 35° |
| 2026-04-16 05:52 | 28.52248 | -96.89167 | 21009 ft | 486 kts | 37° |
| 2026-04-16 05:52 | 28.54848 | -96.86787 | 21014 ft | 485 kts | 38° |
| 2026-04-16 05:53 | 28.57478 | -96.84346 | 21020 ft | 486 kts | 38° |
| 2026-04-16 05:53 | 28.60116 | -96.81889 | 21011 ft | 486 kts | 38° |
| 2026-04-16 05:53 | 28.62748 | -96.79444 | 21014 ft | 487 kts | 38° |
| 2026-04-16 05:53 | 28.65339 | -96.77045 | 21019 ft | 486 kts | 38° |
| 2026-04-16 05:54 | 28.67969 | -96.74620 | 21024 ft | 485 kts | 38° |
| 2026-04-16 05:54 | 28.70625 | -96.72178 | 21024 ft | 488 kts | 38° |
| 2026-04-16 05:54 | 28.73274 | -96.69750 | 21020 ft | 487 kts | 37° |
| 2026-04-16 05:54 | 28.75917 | -96.67329 | 21028 ft | 487 kts | 37° |
| 2026-04-16 05:55 | 28.78556 | -96.64913 | 21025 ft | 487 kts | 37° |
| 2026-04-16 05:55 | 28.81206 | -96.62487 | 21024 ft | 487 kts | 37° |
| 2026-04-16 05:55 | 28.83828 | -96.60049 | 21022 ft | 488 kts | 39° |
| 2026-04-16 05:55 | 28.86408 | -96.57490 | 21025 ft | 488 kts | 40° |
| 2026-04-16 05:56 | 28.88919 | -96.54884 | 21017 ft | 488 kts | 41° |
| 2026-04-16 05:56 | 28.91389 | -96.52266 | 21021 ft | 487 kts | 42° |
| 2026-04-16 05:56 | 28.93863 | -96.49627 | 21023 ft | 486 kts | 42° |
| 2026-04-16 05:56 | 28.96314 | -96.47012 | 21018 ft | 468 kts | 42° |
| 2026-04-16 05:57 | 28.98621 | -96.44556 | 21007 ft | 448 kts | 42° |
| 2026-04-16 05:57 | 29.00883 | -96.42156 | 20795 ft | 434 kts | 41° |
| 2026-04-16 05:57 | 29.03084 | -96.39829 | 20434 ft | 425 kts | 41° |
| 2026-04-16 05:57 | 29.05251 | -96.37544 | 19927 ft | 421 kts | 41° |
| 2026-04-16 05:58 | 29.07403 | -96.35281 | 19343 ft | 419 kts | 41° |
| 2026-04-16 05:58 | 29.09532 | -96.33044 | 18769 ft | 416 kts | 41° |
| 2026-04-16 05:58 | 29.11665 | -96.30803 | 18177 ft | 413 kts | 41° |
| 2026-04-16 05:58 | 29.13756 | -96.28605 | 17597 ft | 409 kts | 42° |
| 2026-04-16 05:59 | 29.15843 | -96.26410 | 17002 ft | 406 kts | 41° |
| 2026-04-16 05:59 | 29.17918 | -96.24227 | 16425 ft | 402 kts | 41° |
| 2026-04-16 05:59 | 29.19954 | -96.22087 | 15844 ft | 399 kts | 41° |
| 2026-04-16 05:59 | 29.21999 | -96.19936 | 15263 ft | 395 kts | 41° |
| 2026-04-16 06:00 | 29.24020 | -96.17810 | 14695 ft | 392 kts | 41° |
| 2026-04-16 06:00 | 29.25996 | -96.15732 | 14132 ft | 389 kts | 41° |
| 2026-04-16 06:00 | 29.27993 | -96.13628 | 13595 ft | 385 kts | 41° |
| 2026-04-16 06:00 | 29.29940 | -96.11576 | 13305 ft | 373 kts | 41° |
| 2026-04-16 06:01 | 29.31803 | -96.09595 | 13144 ft | 359 kts | 43° |
| 2026-04-16 06:01 | 29.33480 | -96.07505 | 12990 ft | 347 kts | 49° |
| 2026-04-16 06:01 | 29.34967 | -96.05408 | 12946 ft | 331 kts | 51° |
| 2026-04-16 06:01 | 29.36357 | -96.03364 | 12763 ft | 323 kts | 52° |
| 2026-04-16 06:02 | 29.39060 | -95.99245 | 12389 ft | 330 kts | 54° |
| 2026-04-16 06:02 | 29.40437 | -95.97156 | 12145 ft | 324 kts | 50° |
| 2026-04-16 06:02 | 29.41905 | -95.95258 | 12001 ft | 316 kts | 46° |
| 2026-04-16 06:03 | 29.43473 | -95.93398 | 11670 ft | 324 kts | 45° |
| 2026-04-16 06:03 | 29.45033 | -95.91558 | 11267 ft | 324 kts | 46° |
| 2026-04-16 06:03 | 29.46582 | -95.89690 | 10869 ft | 322 kts | 46° |
| 2026-04-16 06:03 | 29.48100 | -95.87824 | 10473 ft | 319 kts | 47° |
| 2026-04-16 06:04 | 29.49607 | -95.85947 | 10076 ft | 317 kts | 47° |
| 2026-04-16 06:04 | 29.51091 | -95.84090 | 9860 ft | 308 kts | 47° |
| 2026-04-16 06:04 | 29.52510 | -95.82313 | 9619 ft | 301 kts | 48° |
| 2026-04-16 06:04 | 29.53937 | -95.80524 | 9192 ft | 302 kts | 48° |
| 2026-04-16 06:05 | 29.55350 | -95.78757 | 8823 ft | 300 kts | 48° |
| 2026-04-16 06:05 | 29.56767 | -95.76982 | 8465 ft | 298 kts | 48° |
| 2026-04-16 06:05 | 29.58168 | -95.75224 | 8109 ft | 295 kts | 48° |
| 2026-04-16 06:05 | 29.59536 | -95.73507 | 7762 ft | 293 kts | 49° |
| 2026-04-16 06:06 | 29.60913 | -95.71778 | 7407 ft | 291 kts | 49° |
| 2026-04-16 06:06 | 29.62285 | -95.70055 | 7061 ft | 289 kts | 48° |
| 2026-04-16 06:06 | 29.63634 | -95.68362 | 6710 ft | 287 kts | 49° |
| 2026-04-16 06:06 | 29.64973 | -95.66680 | 6366 ft | 285 kts | 49° |
| 2026-04-16 06:07 | 29.66315 | -95.64996 | 6019 ft | 283 kts | 49° |
| 2026-04-16 06:07 | 29.67636 | -95.63339 | 5657 ft | 282 kts | 49° |
| 2026-04-16 06:07 | 29.68967 | -95.61665 | 5293 ft | 280 kts | 49° |
| 2026-04-16 06:07 | 29.70265 | -95.60031 | 4953 ft | 277 kts | 50° |
| 2026-04-16 06:08 | 29.71545 | -95.58418 | 4618 ft | 274 kts | 50° |
| 2026-04-16 06:08 | 29.72837 | -95.56791 | 4284 ft | 271 kts | 50° |
| 2026-04-16 06:08 | 29.74091 | -95.55212 | 3942 ft | 266 kts | 50° |
| 2026-04-16 06:08 | 29.75309 | -95.53680 | 3770 ft | 252 kts | 50° |
| 2026-04-16 06:09 | 29.76453 | -95.52242 | 3700 ft | 235 kts | 50° |
| 2026-04-16 06:09 | 29.77522 | -95.50894 | 3632 ft | 220 kts | 51° |
| 2026-04-16 06:09 | 29.78528 | -95.49622 | 3560 ft | 206 kts | 52° |
| 2026-04-16 06:09 | 29.79318 | -95.48343 | 3497 ft | 189 kts | 70° |
| 2026-04-16 06:10 | 29.79523 | -95.46937 | 3409 ft | 169 kts | 101° |
| 2026-04-16 06:10 | 29.79255 | -95.45664 | 3246 ft | 160 kts | 115° |
| 2026-04-16 06:10 | 29.78686 | -95.44572 | 3135 ft | 164 kts | 140° |
| 2026-04-16 06:10 | 29.77714 | -95.43858 | 3020 ft | 165 kts | 148° |
| 2026-04-16 06:11 | 29.76877 | -95.42960 | 2903 ft | 165 kts | 132° |
| 2026-04-16 06:11 | 29.76178 | -95.41897 | 2787 ft | 167 kts | 130° |
| 2026-04-16 06:11 | 29.75443 | -95.40882 | 2665 ft | 165 kts | 135° |
| 2026-04-16 06:11 | 29.74657 | -95.39912 | 2507 ft | 164 kts | 136° |
| 2026-04-16 06:12 | 29.73871 | -95.38961 | 2352 ft | 162 kts | 136° |
| 2026-04-16 06:12 | 29.73135 | -95.38076 | 2222 ft | 146 kts | 136° |
| 2026-04-16 06:12 | 29.72442 | -95.37250 | 2137 ft | 141 kts | 137° |
| 2026-04-16 06:12 | 29.71779 | -95.36462 | 1961 ft | 134 kts | 137° |
| 2026-04-16 06:13 | 29.71150 | -95.35712 | 1766 ft | 126 kts | 137° |
| 2026-04-16 06:13 | 29.70536 | -95.34988 | 1616 ft | 128 kts | 137° |
| 2026-04-16 06:13 | 29.69906 | -95.34238 | 1441 ft | 129 kts | 137° |
| 2026-04-16 06:13 | 29.69279 | -95.33495 | 1261 ft | 129 kts | 137° |
| 2026-04-16 06:14 | 29.68646 | -95.32744 | 1099 ft | 130 kts | 137° |
| 2026-04-16 06:14 | 29.68014 | -95.31998 | 927 ft | 131 kts | 136° |
| 2026-04-16 06:14 | 29.67377 | -95.31243 | 757 ft | 131 kts | 136° |
| 2026-04-16 06:14 | 29.66743 | -95.30496 | 584 ft | 131 kts | 136° |
| 2026-04-16 06:15 | 29.66097 | -95.29730 | 408 ft | 133 kts | 136° |
| 2026-04-16 06:15 | 29.65453 | -95.28968 | 237 ft | 133 kts | 135° |
| 2026-04-16 06:15 | 29.64802 | -95.28203 | 64 ft | 129 kts | 135° |
| 2026-04-16 06:15 | 29.64248 | -95.27548 | 49 ft | 86 kts | 134° |
| 2026-04-16 06:16 | 29.63982 | -95.27229 | 49 ft | 32 kts | 128° |
| 2026-04-16 06:16 | 29.63921 | -95.27032 | 48 ft | 19 kts | 94° |
| 2026-04-16 06:16 | 29.63958 | -95.26977 | 48 ft | 8 kts | 334° |
| 2026-04-16 06:16 | 29.64000 | -95.27020 | 48 ft | 8 kts | 314° |
| 2026-04-16 06:17 | 29.64038 | -95.27065 | 48 ft | 7 kts | 313° |
| 2026-04-16 06:17 | 29.64075 | -95.27110 | 48 ft | 7 kts | 314° |
| 2026-04-16 06:17 | 29.64111 | -95.27152 | 48 ft | 7 kts | 315° |
| 2026-04-16 06:17 | 29.64150 | -95.27196 | 48 ft | 7 kts | 314° |
| 2026-04-16 06:18 | 29.64187 | -95.27241 | 48 ft | 7 kts | 314° |
| 2026-04-16 06:18 | 29.64230 | -95.27292 | 48 ft | 11 kts | 314° |
| 2026-04-16 06:18 | 29.64287 | -95.27361 | 48 ft | 11 kts | 313° |
| 2026-04-16 06:18 | 29.64343 | -95.27428 | 48 ft | 11 kts | 313° |
| 2026-04-16 06:19 | 29.64397 | -95.27493 | 48 ft | 10 kts | 314° |
| 2026-04-16 06:19 | 29.64450 | -95.27554 | 49 ft | 10 kts | 314° |
| 2026-04-16 06:19 | 29.64500 | -95.27613 | 49 ft | 9 kts | 314° |
| 2026-04-16 06:19 | 29.64546 | -95.27667 | 49 ft | 9 kts | 314° |
| 2026-04-16 06:20 | 29.64609 | -95.27743 | 49 ft | 21 kts | 314° |
| 2026-04-16 06:20 | 29.64720 | -95.27877 | 50 ft | 15 kts | 313° |
| 2026-04-16 06:20 | 29.64797 | -95.27881 | 50 ft | 13 kts | 44° |
| 2026-04-16 06:20 | 29.64878 | -95.27788 | 49 ft | 17 kts | 43° |
| 2026-04-16 06:21 | 29.64969 | -95.27690 | 49 ft | 17 kts | 40° |
| 2026-04-16 06:21 | 29.65082 | -95.27653 | 49 ft | 14 kts | 358° |
| 2026-04-16 06:21 | 29.65169 | -95.27667 | 49 ft | 8 kts | 349° |
| 2026-04-16 06:21 | 29.65221 | -95.27694 | 49 ft | 7 kts | 332° |
| 2026-04-16 06:22 | 29.65244 | -95.27708 | 49 ft | 0 kts | 333° |